createdAt,value
2023-02-17T00:01:30.672Z,28.80
2023-02-17T00:03:58.433Z,31.10
2023-02-17T00:06:27.950Z,29.03
2023-02-17T00:08:59.569Z,32.50
2023-02-17T00:11:28.565Z,32.03
2023-02-17T00:13:56.531Z,31.63
2023-02-17T00:16:25.972Z,29.90
2023-02-17T00:18:55.423Z,31.93
2023-02-17T00:21:25.386Z,31.30
2023-02-17T00:23:58.910Z,33.30
2023-02-17T00:26:25.932Z,28.10
2023-02-17T00:28:53.247Z,32.97
2023-02-17T00:31:24.109Z,31.83
2023-02-17T00:33:54.972Z,32.53
2023-02-17T00:36:22.063Z,33.17
2023-02-17T00:38:55.509Z,31.67
2023-02-17T00:41:26.239Z,33.00
2023-02-17T00:43:54.592Z,31.23
2023-02-17T00:46:22.158Z,32.20
2023-02-17T00:48:49.409Z,33.27
2023-02-17T00:51:19.735Z,32.23
2023-02-17T00:53:47.332Z,30.03
2023-02-17T00:56:14.815Z,33.40
2023-02-17T00:58:48.491Z,32.00
2023-02-17T01:01:18.197Z,33.73
2023-02-17T01:03:45.285Z,28.97
2023-02-17T01:06:28.592Z,33.67
2023-02-17T01:08:56.283Z,32.50
2023-02-17T01:11:27.085Z,33.07
2023-02-17T01:13:56.003Z,35.07
2023-02-17T01:16:35.400Z,34.40
2023-02-17T01:19:06.160Z,34.67
2023-02-17T01:21:33.793Z,35.33
2023-02-17T01:24:03.865Z,33.77
2023-02-17T01:26:39.291Z,35.30
2023-02-17T01:29:07.889Z,34.70
2023-02-17T01:31:35.658Z,35.73
2023-02-17T01:34:05.202Z,34.03
2023-02-17T01:36:32.955Z,34.73
2023-02-17T01:39:03.624Z,33.07
2023-02-17T01:41:31.945Z,31.73
2023-02-17T01:44:13.367Z,36.33
2023-02-17T01:46:43.355Z,34.50
2023-02-17T01:49:25.712Z,36.13
2023-02-17T01:52:13.920Z,33.80
2023-02-17T01:54:58.344Z,36.83
2023-02-17T01:57:31.110Z,36.37
2023-02-17T01:59:58.542Z,32.47
2023-02-17T02:02:27.300Z,34.30
2023-02-17T02:04:57.366Z,34.40
2023-02-17T02:07:31.895Z,33.17
2023-02-17T02:09:59.517Z,35.50
2023-02-17T02:12:33.946Z,35.30
2023-02-17T02:15:14.612Z,33.70
2023-02-17T02:18:08.590Z,34.50
2023-02-17T02:21:05.985Z,35.97
2023-02-17T02:23:54.027Z,35.37
2023-02-17T02:26:45.417Z,34.27
2023-02-17T02:29:53.211Z,35.07
2023-02-17T02:32:39.628Z,33.13
2023-02-17T02:35:21.887Z,31.50
2023-02-17T02:38:14.981Z,30.33
2023-02-17T02:40:51.177Z,35.80
2023-02-17T02:43:18.492Z,33.67
2023-02-17T02:45:48.588Z,37.43
2023-02-17T02:48:15.571Z,37.33
2023-02-17T02:51:01.745Z,33.83
2023-02-17T02:53:55.934Z,35.20
2023-02-17T02:56:43.061Z,34.40
2023-02-17T02:59:31.167Z,35.80
2023-02-17T03:02:17.705Z,33.40
2023-02-17T03:04:52.763Z,36.23
2023-02-17T03:07:38.944Z,34.97
2023-02-17T03:10:15.274Z,33.63
2023-02-17T03:12:45.487Z,34.63
2023-02-17T03:15:22.540Z,39.90
2023-02-17T03:17:52.217Z,34.60
2023-02-17T03:20:22.145Z,36.53
2023-02-17T03:22:51.631Z,35.50
2023-02-17T03:25:23.208Z,37.50
2023-02-17T03:27:53.727Z,35.17
2023-02-17T03:30:24.632Z,36.17
2023-02-17T03:32:51.611Z,34.77
2023-02-17T03:35:18.730Z,33.60
2023-02-17T03:37:45.786Z,31.93
2023-02-17T03:40:12.803Z,33.20
2023-02-17T03:42:39.740Z,34.07
2023-02-17T03:45:07.413Z,31.03
2023-02-17T03:47:34.625Z,33.00
2023-02-17T03:50:07.407Z,32.47
2023-02-17T03:52:34.338Z,27.80
2023-02-17T03:55:01.318Z,32.70
2023-02-17T03:57:29.384Z,32.13
2023-02-17T03:59:56.430Z,31.77
2023-02-17T04:02:23.701Z,29.60
2023-02-17T04:04:53.764Z,29.97
2023-02-17T04:07:23.655Z,31.80
2023-02-17T04:09:50.766Z,31.50
2023-02-17T04:12:17.737Z,29.57
2023-02-17T04:14:44.831Z,30.20
2023-02-17T04:17:14.866Z,29.40
2023-02-17T04:19:42.712Z,27.20
2023-02-17T04:22:10.245Z,30.27
2023-02-17T04:24:38.185Z,29.43
2023-02-17T04:27:05.745Z,30.77
2023-02-17T04:29:33.609Z,29.93
2023-02-17T04:32:00.952Z,32.00
2023-02-17T04:34:28.047Z,31.27
2023-02-17T04:36:56.041Z,31.87
2023-02-17T04:39:25.845Z,32.97
2023-02-17T04:41:53.010Z,30.70
2023-02-17T04:44:22.831Z,34.57
2023-02-17T04:46:49.763Z,31.53
2023-02-17T04:49:16.611Z,33.53
2023-02-17T04:51:46.233Z,34.50
2023-02-17T04:54:13.222Z,34.97
2023-02-17T04:56:40.381Z,33.60
2023-02-17T04:59:07.316Z,31.13
2023-02-17T05:01:34.450Z,34.40
2023-02-17T05:04:04.730Z,34.10
2023-02-17T05:06:34.325Z,36.00
2023-02-17T05:09:01.305Z,34.63
2023-02-17T05:11:28.252Z,32.97
2023-02-17T05:13:55.398Z,33.63
2023-02-17T05:16:22.536Z,33.00
2023-02-17T05:18:49.733Z,33.87
2023-02-17T05:21:17.761Z,33.87
2023-02-17T05:23:54.038Z,32.93
2023-02-17T05:26:21.238Z,30.10
2023-02-17T05:28:48.747Z,29.30
2023-02-17T05:31:18.667Z,30.20
2023-02-17T05:33:46.191Z,26.00
2023-02-17T05:36:16.826Z,29.90
2023-02-17T05:38:49.385Z,26.37
2023-02-17T05:41:21.934Z,27.07
2023-02-17T05:43:49.117Z,26.03
2023-02-17T05:46:16.374Z,25.23
2023-02-17T05:48:49.028Z,25.30
2023-02-17T05:51:18.794Z,23.17
2023-02-17T05:53:47.819Z,18.90
2023-02-17T05:56:16.124Z,26.33
2023-02-17T05:58:46.426Z,21.87
2023-02-17T06:01:13.839Z,26.00
2023-02-17T06:03:41.083Z,27.93
2023-02-17T06:06:08.494Z,22.97
2023-02-17T06:08:37.059Z,26.37
2023-02-17T06:11:08.033Z,26.13
2023-02-17T06:13:35.595Z,27.07
2023-02-17T06:16:02.761Z,27.93
2023-02-17T06:18:36.302Z,27.33
2023-02-17T06:21:07.010Z,25.63
2023-02-17T06:23:36.975Z,24.67
2023-02-17T06:26:06.570Z,25.20
2023-02-17T06:28:37.005Z,23.03
2023-02-17T06:31:07.627Z,23.10
2023-02-17T06:33:34.777Z,21.73
2023-02-17T06:36:05.124Z,22.57
2023-02-17T06:38:35.641Z,22.70
2023-02-17T06:41:02.727Z,22.37
2023-02-17T06:43:30.044Z,23.10
2023-02-17T06:46:00.070Z,22.97
2023-02-17T06:48:27.714Z,20.50
2023-02-17T06:50:55.855Z,20.33
2023-02-17T06:53:23.070Z,19.50
2023-02-17T06:55:50.032Z,21.20
2023-02-17T06:58:17.100Z,20.40
2023-02-17T07:00:46.950Z,20.20
2023-02-17T07:03:14.168Z,19.17
2023-02-17T07:05:41.235Z,18.97
2023-02-17T07:08:08.221Z,17.90
2023-02-17T07:10:38.559Z,18.63
2023-02-17T07:13:05.901Z,19.17
2023-02-17T07:15:32.912Z,16.00
2023-02-17T07:18:01.189Z,17.57
2023-02-17T07:20:28.447Z,18.67
2023-02-17T07:23:00.534Z,16.67
2023-02-17T07:25:31.225Z,18.03
2023-02-17T07:28:02.659Z,16.33
2023-02-17T07:30:29.888Z,16.07
2023-02-17T07:32:57.610Z,16.17
2023-02-17T07:35:24.804Z,18.20
2023-02-17T07:37:58.239Z,19.40
2023-02-17T07:40:25.867Z,17.27
2023-02-17T07:42:53.616Z,17.07
2023-02-17T07:45:20.588Z,17.80
2023-02-17T07:47:50.317Z,19.47
2023-02-17T07:50:23.799Z,18.90
2023-02-17T07:52:51.498Z,20.60
2023-02-17T07:55:19.014Z,19.47
2023-02-17T07:57:49.069Z,18.77
2023-02-17T08:00:16.917Z,19.27
2023-02-17T08:02:44.260Z,17.97
2023-02-17T08:05:11.837Z,17.80
2023-02-17T08:07:42.215Z,17.93
2023-02-17T08:10:33.048Z,17.17
2023-02-17T08:13:21.398Z,16.00
2023-02-17T08:15:48.444Z,17.20
2023-02-17T08:18:15.500Z,16.80
2023-02-17T08:20:45.664Z,11.33
2023-02-17T08:23:13.066Z,18.10
2023-02-17T08:25:40.059Z,16.03
2023-02-17T08:28:07.008Z,16.20
2023-02-17T08:30:36.577Z,17.17
2023-02-17T08:33:03.619Z,16.57
2023-02-17T08:35:30.731Z,15.43
2023-02-17T08:37:57.945Z,16.40
2023-02-17T08:40:25.639Z,15.67
2023-02-17T08:42:55.816Z,11.57
2023-02-17T08:45:27.165Z,16.47
2023-02-17T08:47:54.322Z,17.37
2023-02-17T08:50:21.684Z,16.67
2023-02-17T08:52:49.155Z,16.07
2023-02-17T08:55:21.745Z,16.33
2023-02-17T08:57:48.750Z,16.70
2023-02-17T09:00:17.649Z,15.57
2023-02-17T09:02:50.613Z,16.60
2023-02-17T09:05:17.978Z,18.27
2023-02-17T09:07:45.101Z,15.53
2023-02-17T09:10:13.401Z,18.97
2023-02-17T09:12:43.505Z,20.00
2023-02-17T09:15:10.901Z,18.67
2023-02-17T09:17:44.787Z,18.00
2023-02-17T09:20:23.913Z,20.57
2023-02-17T09:22:52.746Z,20.63
2023-02-17T09:25:20.248Z,20.40
2023-02-17T09:27:47.646Z,17.43
2023-02-17T09:30:18.119Z,21.60
2023-02-17T09:32:46.338Z,20.90
2023-02-17T09:35:18.215Z,20.40
2023-02-17T09:37:49.188Z,20.73
2023-02-17T09:40:36.365Z,21.57
2023-02-17T09:43:03.998Z,21.37
2023-02-17T09:45:36.160Z,21.67
2023-02-17T09:48:08.809Z,22.63
2023-02-17T09:50:55.673Z,22.83
2023-02-17T09:53:40.912Z,20.23
2023-02-17T09:56:12.494Z,22.80
2023-02-17T09:58:53.111Z,20.90
2023-02-17T10:01:24.101Z,26.47
2023-02-17T10:04:13.590Z,22.33
2023-02-17T10:06:47.155Z,24.23
2023-02-17T10:09:30.902Z,24.77
2023-02-17T10:12:14.523Z,24.30
2023-02-17T10:14:59.971Z,22.17
2023-02-17T10:18:04.395Z,27.77
2023-02-17T10:20:46.917Z,25.43
2023-02-17T10:23:23.583Z,24.90
2023-02-17T10:26:09.385Z,24.27
2023-02-17T10:28:43.390Z,20.07
2023-02-17T10:31:37.939Z,23.47
2023-02-17T10:34:33.618Z,22.73
2023-02-17T10:37:20.360Z,19.80
2023-02-17T10:39:52.102Z,19.73
2023-02-17T10:42:30.915Z,19.70
2023-02-17T10:45:16.186Z,20.50
2023-02-17T10:47:47.188Z,18.63
2023-02-17T10:50:27.786Z,17.97
2023-02-17T10:52:56.658Z,19.60
2023-02-17T10:55:37.961Z,17.23
2023-02-17T10:58:22.207Z,18.67
2023-02-17T11:03:49.484Z,16.83
2023-02-17T11:06:23.062Z,16.93
2023-02-17T11:08:52.392Z,16.23
2023-02-17T11:11:24.460Z,15.80
2023-02-17T11:14:29.354Z,15.87
2023-02-17T11:17:13.446Z,15.47
2023-02-17T11:19:43.781Z,12.77
2023-02-17T11:23:23.013Z,12.50
2023-02-17T11:26:25.002Z,12.13
2023-02-17T11:28:53.101Z,12.37
2023-02-17T11:31:39.140Z,9.10
2023-02-17T11:34:29.880Z,12.20
2023-02-17T11:37:04.567Z,12.43
2023-02-17T11:39:48.461Z,10.13
2023-02-17T11:42:35.148Z,12.00
2023-02-17T11:45:18.210Z,9.10
2023-02-17T11:48:07.716Z,10.27
2023-02-17T11:50:42.191Z,8.83
2023-02-17T11:53:48.353Z,10.07
2023-02-17T11:56:25.684Z,8.73
2023-02-17T11:59:55.748Z,8.47
2023-02-17T12:02:37.969Z,6.37
2023-02-17T12:05:40.090Z,6.93
2023-02-17T12:08:34.956Z,6.57
2023-02-17T12:11:23.338Z,5.50
2023-02-17T12:14:14.837Z,6.60
2023-02-17T12:17:14.360Z,6.57
2023-02-17T12:19:47.081Z,7.20
2023-02-17T12:22:22.092Z,5.70
2023-02-17T12:25:15.575Z,6.37
2023-02-17T12:28:00.588Z,6.90
2023-02-17T12:31:05.217Z,6.53
2023-02-17T12:34:22.898Z,5.33
2023-02-17T12:36:51.385Z,6.80
2023-02-17T12:39:23.418Z,6.20
2023-02-17T12:42:11.238Z,6.10
2023-02-17T12:44:49.675Z,7.10
2023-02-17T12:47:31.244Z,6.83
2023-02-17T12:50:06.643Z,6.53
2023-02-17T12:52:41.374Z,6.83
2023-02-17T12:55:22.459Z,6.63
2023-02-17T12:58:07.741Z,6.50
2023-02-17T13:00:40.298Z,7.30
2023-02-17T13:03:09.208Z,7.10
2023-02-17T13:05:44.840Z,7.43
2023-02-17T13:08:24.275Z,6.53
2023-02-17T13:11:07.539Z,6.60
2023-02-17T13:13:37.360Z,6.90
2023-02-17T13:16:12.100Z,7.07
2023-02-17T13:18:44.864Z,6.40
2023-02-17T13:21:25.159Z,6.10
2023-02-17T13:24:30.317Z,6.47
2023-02-17T13:26:57.234Z,5.73
2023-02-17T13:29:24.012Z,5.90
2023-02-17T13:31:51.554Z,6.20
2023-02-17T13:34:27.882Z,5.10
2023-02-17T13:36:55.513Z,5.40
2023-02-17T13:39:28.658Z,5.07
2023-02-17T13:41:58.588Z,6.13
2023-02-17T13:44:40.512Z,5.40
2023-02-17T13:47:18.203Z,5.73
2023-02-17T13:49:57.546Z,5.40
2023-02-17T13:52:30.047Z,6.53
2023-02-17T13:55:02.987Z,6.80
2023-02-17T13:57:32.005Z,7.87
2023-02-17T14:00:28.168Z,7.37
2023-02-17T14:03:11.776Z,7.13
2023-02-17T14:05:44.141Z,8.20
2023-02-17T14:08:21.012Z,7.13
2023-02-17T14:10:48.339Z,7.97
2023-02-17T14:13:15.819Z,8.10
2023-02-17T14:16:00.085Z,9.07
2023-02-17T14:18:33.265Z,8.23
2023-02-17T14:21:02.314Z,8.80
2023-02-17T14:23:41.380Z,8.13
2023-02-17T14:26:14.309Z,9.07
2023-02-17T14:28:41.348Z,9.73
2023-02-17T14:31:12.782Z,9.37
2023-02-17T14:33:39.776Z,9.50
2023-02-17T14:36:09.383Z,9.50
2023-02-17T14:38:40.291Z,9.60
2023-02-17T14:41:10.610Z,8.93
2023-02-17T14:43:39.362Z,9.90
2023-02-17T14:46:06.494Z,8.67
2023-02-17T14:48:33.634Z,8.90
2023-02-17T14:51:03.716Z,8.70
2023-02-17T14:53:36.422Z,8.10
2023-02-17T14:56:28.383Z,9.47
2023-02-17T14:58:55.492Z,9.83
2023-02-17T15:01:24.328Z,8.43
2023-02-17T15:03:52.656Z,9.47
2023-02-17T15:06:23.725Z,10.03
2023-02-17T15:08:54.273Z,10.20
2023-02-17T15:11:34.611Z,9.97
2023-02-17T15:14:02.965Z,10.50
2023-02-17T15:16:33.466Z,10.60
2023-02-17T15:19:03.754Z,10.37
2023-02-17T15:21:35.260Z,10.27
2023-02-17T15:24:04.049Z,10.33
2023-02-17T15:26:31.217Z,8.13
2023-02-17T15:28:58.922Z,8.53
2023-02-17T15:31:28.968Z,7.97
2023-02-17T15:34:00.405Z,7.37
2023-02-17T15:36:28.380Z,7.70
2023-02-17T15:38:57.236Z,7.53
2023-02-17T15:41:29.891Z,6.40
2023-02-17T15:44:00.900Z,7.20
2023-02-17T15:46:32.488Z,7.03
2023-02-17T15:49:00.106Z,6.37
2023-02-17T15:51:27.193Z,7.00
2023-02-17T15:53:54.410Z,7.03
2023-02-17T15:56:31.949Z,6.03
2023-02-17T15:59:09.466Z,6.07
2023-02-17T16:01:36.458Z,5.33
2023-02-17T16:04:03.429Z,5.47
2023-02-17T16:06:30.468Z,5.37
2023-02-17T16:09:00.244Z,5.40
2023-02-17T16:11:30.141Z,5.97
2023-02-17T16:13:57.733Z,4.83
2023-02-17T16:16:29.629Z,5.60
2023-02-17T16:18:56.826Z,6.37
2023-02-17T16:21:24.039Z,5.30
2023-02-17T16:23:52.972Z,5.90
2023-02-17T16:26:25.805Z,5.97
2023-02-17T16:28:52.852Z,5.73
2023-02-17T16:31:19.915Z,5.47
2023-02-17T16:33:46.756Z,5.73
2023-02-17T16:36:19.011Z,5.73
2023-02-17T16:38:50.500Z,5.87
2023-02-17T16:41:19.430Z,6.00
2023-02-17T16:43:46.952Z,6.13
2023-02-17T16:46:35.916Z,6.53
2023-02-17T16:49:15.418Z,6.17
2023-02-17T16:51:45.416Z,6.07
2023-02-17T16:54:12.430Z,7.23
2023-02-17T16:56:45.811Z,6.77
2023-02-17T16:59:18.231Z,7.03
2023-02-17T17:01:46.373Z,5.70
2023-02-17T17:04:15.470Z,6.97
2023-02-17T17:06:51.946Z,6.40
2023-02-17T17:09:29.180Z,6.43
2023-02-17T17:11:56.415Z,6.60
2023-02-17T17:14:23.615Z,7.27
2023-02-17T17:17:00.851Z,7.17
2023-02-17T17:19:27.779Z,7.20
2023-02-17T17:21:55.530Z,5.17
2023-02-17T17:24:23.199Z,7.03
2023-02-17T17:26:55.131Z,6.70
2023-02-17T17:29:22.592Z,5.87
2023-02-17T17:31:49.746Z,5.17
2023-02-17T17:34:17.729Z,6.90
2023-02-17T17:36:47.262Z,4.90
2023-02-17T17:39:20.625Z,7.67
2023-02-17T17:41:51.166Z,10.03
2023-02-17T17:44:21.282Z,5.90
2023-02-17T17:46:48.932Z,6.10
2023-02-17T17:49:18.605Z,6.60
2023-02-17T17:51:48.279Z,7.30
2023-02-17T17:54:15.502Z,6.67
2023-02-17T17:56:43.259Z,8.17
2023-02-17T17:59:13.194Z,5.93
2023-02-17T18:01:43.863Z,6.00
2023-02-17T18:04:12.962Z,5.80
2023-02-17T18:06:59.542Z,5.60
2023-02-17T18:09:33.345Z,5.57
2023-02-17T18:12:04.735Z,5.70
2023-02-17T18:14:35.738Z,5.60
2023-02-17T18:17:03.564Z,6.30
2023-02-17T18:19:32.835Z,6.07
2023-02-17T18:22:00.423Z,5.67
2023-02-17T18:24:28.415Z,6.50
2023-02-17T18:26:56.801Z,6.10
2023-02-17T18:29:25.246Z,6.10
2023-02-17T18:31:52.895Z,6.83
2023-02-17T18:34:23.167Z,7.10
2023-02-17T18:36:50.334Z,8.57
2023-02-17T18:39:17.967Z,7.37
2023-02-17T18:41:45.361Z,7.40
2023-02-17T18:44:14.082Z,7.90
2023-02-17T18:46:41.858Z,8.40
2023-02-17T18:49:09.568Z,8.20
2023-02-17T18:51:37.806Z,6.53
2023-02-17T18:54:10.966Z,6.93
2023-02-17T18:56:39.301Z,5.67
2023-02-17T18:59:07.647Z,4.00
2023-02-17T19:01:39.653Z,4.20
2023-02-17T19:04:07.850Z,4.20
2023-02-17T19:06:35.649Z,4.17
2023-02-17T19:09:04.865Z,3.17
2023-02-17T19:11:35.311Z,2.50
2023-02-17T19:14:03.464Z,2.30
2023-02-17T19:16:33.069Z,3.53
2023-02-17T19:19:01.222Z,2.47
2023-02-17T19:21:28.640Z,2.93
2023-02-17T19:23:56.204Z,3.13
2023-02-17T19:26:24.692Z,2.37
2023-02-17T19:28:52.937Z,2.40
2023-02-17T19:31:21.567Z,2.33
2023-02-17T19:33:49.882Z,3.13
2023-02-17T19:36:22.375Z,2.67
2023-02-17T19:38:51.593Z,3.13
2023-02-17T19:41:20.028Z,2.33
2023-02-17T19:43:47.565Z,2.67
2023-02-17T19:46:16.665Z,2.47
2023-02-17T19:48:44.215Z,2.63
2023-02-17T19:51:15.389Z,3.10
2023-02-17T19:53:44.693Z,2.40
2023-02-17T19:56:16.698Z,2.40
2023-02-17T19:58:45.609Z,3.13
2023-02-17T20:01:15.583Z,3.07
2023-02-17T20:03:43.634Z,2.67
2023-02-17T20:06:16.649Z,2.73
2023-02-17T20:08:44.832Z,3.10
2023-02-17T20:11:14.015Z,2.70
2023-02-17T20:13:46.780Z,3.00
2023-02-17T20:16:18.324Z,2.47
2023-02-17T20:18:51.568Z,4.13
2023-02-17T20:21:24.761Z,5.97
2023-02-17T20:23:54.765Z,3.13
2023-02-17T20:26:27.902Z,3.97
2023-02-17T20:29:00.565Z,3.03
2023-02-17T20:31:28.896Z,3.60
2023-02-17T20:33:56.659Z,2.97
2023-02-17T20:36:25.568Z,2.93
2023-02-17T20:38:54.806Z,2.47
2023-02-17T20:41:25.536Z,2.60
2023-02-17T20:43:53.772Z,2.30
2023-02-17T20:46:27.215Z,2.03
2023-02-17T20:48:55.793Z,3.07
2023-02-17T20:51:23.289Z,2.50
2023-02-17T20:53:51.112Z,2.43
2023-02-17T20:56:25.052Z,2.23
2023-02-17T20:58:52.864Z,2.23
2023-02-17T21:01:20.692Z,1.90
2023-02-17T21:03:50.687Z,1.90
2023-02-17T21:06:27.406Z,1.77
2023-02-17T21:08:57.458Z,2.30
2023-02-17T21:11:25.493Z,1.63
2023-02-17T21:13:53.866Z,1.53
2023-02-17T21:16:24.775Z,1.30
2023-02-17T21:18:54.988Z,1.80
2023-02-17T21:21:22.467Z,1.70
2023-02-17T21:23:50.248Z,1.60
2023-02-17T21:26:20.191Z,1.80
2023-02-17T21:28:48.328Z,1.50
2023-02-17T21:31:17.941Z,1.60
2023-02-17T21:33:47.371Z,2.23
2023-02-17T21:36:19.609Z,1.90
2023-02-17T21:38:47.758Z,2.00
2023-02-17T21:41:18.354Z,1.60
2023-02-17T21:44:05.264Z,1.97
2023-02-17T21:46:34.416Z,2.37
2023-02-17T21:49:02.494Z,1.90
2023-02-17T21:51:31.394Z,1.57
2023-02-17T21:53:59.354Z,1.60
2023-02-17T21:56:26.677Z,1.57
2023-02-17T21:58:55.037Z,1.70
2023-02-17T22:01:24.127Z,1.73
2023-02-17T22:03:51.506Z,1.77
2023-02-17T22:06:31.169Z,1.40
2023-02-17T22:08:59.181Z,1.50
2023-02-17T22:11:34.196Z,1.70
2023-02-17T22:14:03.633Z,1.60
2023-02-17T22:16:35.916Z,1.67
2023-02-17T22:19:04.030Z,1.70
2023-02-17T22:21:31.067Z,1.80
2023-02-17T22:23:59.824Z,1.37
2023-02-17T22:26:27.564Z,1.70
2023-02-17T22:28:55.681Z,1.60
2023-02-17T22:31:25.269Z,1.83
2023-02-17T22:33:52.959Z,1.60
2023-02-17T22:36:25.160Z,1.33
2023-02-17T22:38:52.658Z,2.10
2023-02-17T22:41:21.996Z,2.20
2023-02-17T22:43:49.923Z,1.57
2023-02-17T22:46:18.665Z,1.80
2023-02-17T22:48:47.765Z,1.50
2023-02-17T22:51:20.980Z,2.00
2023-02-17T22:53:48.205Z,1.67
2023-02-17T22:56:15.973Z,2.63
2023-02-17T22:58:42.943Z,1.90
2023-02-17T23:01:11.643Z,1.83
2023-02-17T23:03:38.931Z,1.63
2023-02-17T23:06:11.936Z,2.13
2023-02-17T23:08:39.228Z,2.83
2023-02-17T23:11:11.504Z,2.20
2023-02-17T23:13:38.958Z,1.60
2023-02-17T23:16:07.846Z,2.00
2023-02-17T23:18:37.533Z,2.40
2023-02-17T23:21:11.540Z,2.67
2023-02-17T23:23:38.860Z,1.70
2023-02-17T23:26:06.061Z,2.27
2023-02-17T23:28:33.869Z,1.73
2023-02-17T23:31:00.807Z,2.33
2023-02-17T23:33:27.735Z,2.07
2023-02-17T23:35:57.525Z,2.90
2023-02-17T23:38:24.320Z,2.63
2023-02-17T23:40:52.965Z,2.03
2023-02-17T23:43:21.204Z,1.97
2023-02-17T23:45:48.113Z,1.87
2023-02-17T23:48:15.173Z,2.30
2023-02-17T23:50:42.421Z,1.90
2023-02-17T23:53:09.619Z,2.37
2023-02-17T23:55:36.405Z,2.03
2023-02-17T23:58:03.176Z,2.50
